CheckWX is a tool to help pilots better visualize weather data.  It is not intended as a substitute for an official pre-flight weather briefing.

16:53:59 UTC

KSKF METAR
Kelly Field Airport
San Antonio, Texas, USA
Current

58 mins ago

KSKF 101556Z 16008KT 10SM SCT030 32/23 A3001 RMK AO2A SLP154 T03160231 $
Observed
Jul-10 @ 15:56 UTC
Wind
  • 160° at 8 KTS
Visibility
10 SM
Flight Rules
VFR
Cloud Levels
  • Scattered at 3,000' AGL
Temperature
32°C / 90°F
Dewpoint
23°C / 73°F
Humidity
59%
Altimeter
30.01" Hg
Pressure
1016.22 hPa
Previous

1 hour ago

KSKF 101547Z 17008KT 10SM SCT028 31/23 A3001 RMK SLP154 $
Observed
Jul-10 @ 15:47 UTC
Wind
  • 170° at 8 KTS
Visibility
10 SM
Flight Rules
VFR
Cloud Levels
  • Scattered at 2,800' AGL
Temperature
31°C / 88°F
Dewpoint
23°C / 73°F
Humidity
62%
Altimeter
30.01" Hg
Pressure
1016.22 hPa
Previous

1 hour ago

KSKF 101529Z 16009KT 10SM BKN025 31/23 A3001 RMK SLP154 $
Observed
Jul-10 @ 15:29 UTC
Wind
  • 160° at 9 KTS
Visibility
10 SM
Flight Rules
MVFR
Cloud Levels
  • Broken at 2,500' AGL
Temperature
31°C / 88°F
Dewpoint
23°C / 73°F
Humidity
62%
Altimeter
30.01" Hg
Pressure
1016.22 hPa